Weather reports worldwide

Advertisment
Gwinn, mi, United States of America (2074855): temperature & dewpoint: 16.01.2019 21:00:00 - 22.01.2019 21:00:00 (EST)Gwinn, mi, United States of America (2074855): wind speed: 16.01.2019 21:00:00 - 22.01.2019 21:00:00 (EST)Gwinn, mi, United States of America (2074855): wind direction: 16.01.2019 21:00:00 - 22.01.2019 21:00:00 (EST)Gwinn, mi, United States of America (2074855): visibility: 16.01.2019 21:00:00 - 22.01.2019 21:00:00 (EST)
Date & Time tt [°C] td [°C] ff [km/h] ff [kn] dd vv [km]
22.01.2019 21:00:00 -7,0 -9,0 8 4 WNW 16
22.01.2019 20:00:00 -7,0 -9,0 0 0 N 16
22.01.2019 19:00:00 -7,0 -9,0 9 5 W 16
22.01.2019 18:00:00 -7,0 -9,0 8 4 W 16
22.01.2019 17:00:00 -7,0 -9,0 8 4 WSW 11
22.01.2019 16:00:00 -7,0 -9,0 11 6 SW 16
22.01.2019 15:00:00 -6,0 -9,0 11 6 SW 16
22.01.2019 14:00:00 -6,0 -8,0 9 5 SW 3,2
22.01.2019 13:00:00 -6,0 -8,0 15 8 SSW 4,0
22.01.2019 12:00:00 -6,0 -9,0 21 11 SSW 8
22.01.2019 11:00:00 -7,0 -10,0 21 11 S 4,0
22.01.2019 10:00:00 -7,0 -10,0 29 16 S 11
22.01.2019 09:00:00 -7,0 -9,0 29 16 S 16
22.01.2019 08:00:00 -7,0 -8,0 26 14 S 11
22.01.2019 07:00:00 -7,0 -9,0 22 12 S 16
22.01.2019 06:00:00 -7,4 -9,0 21 11 S 2,0
22.01.2019 05:00:00 -8,0 -9,8 16 9 S 4,0
22.01.2019 04:00:00 -8,3 -11,0 18 10 S 6
22.01.2019 03:00:00 -8,5 -11,5 22 12 SSW 16
22.01.2019 02:00:00 -9,0 -11,8 21 11 S 16
22.01.2019 01:00:00 -9,5 -11,8 22 12 SSW 16
22.01.2019 00:00:00 -9,8 -12,2 21 11 SSW 16
21.01.2019 23:00:00 -10,6 -13,0 22 12 SSW 16
21.01.2019 22:00:00 -13,0 -16,0 18 10 SSW 16
21.01.2019 21:00:00 -13,0 -16,0 18 10 SSW 16
21.01.2019 20:00:00 -13,0 -16,0 16 9 SSW 16
21.01.2019 19:00:00 -12,0 -16,0 15 8 SSW 16
21.01.2019 18:00:00 -11,0 -16,0 16 9 SSW 16
21.01.2019 17:00:00 -10,0 -16,0 18 10 S 16
21.01.2019 16:00:00 -10,0 -17,0 21 11 S 16
21.01.2019 15:00:00 -10,0 -17,0 21 11 SSW 16
21.01.2019 14:00:00 -11,0 -17,0 26 14 SSW 16
21.01.2019 13:00:00 -12,0 -17,0 18 10 SSW 16
21.01.2019 12:00:00 -13,0 -17,0 16 9 S 16
21.01.2019 11:00:00 -14,0 -17,0 5 3 S 16
21.01.2019 10:00:00 -16,0 -18,0 8 4 SSW 16
21.01.2019 09:00:00 -15,0 -17,0 0 0 N 16
21.01.2019 08:00:00 -15,0 -17,0 0 0 N 16
21.01.2019 07:00:00 -15,0 -17,0 11 6 WSW 16
21.01.2019 06:00:00 -15,0 -17,5 5 3 SW 16
21.01.2019 05:00:00 -14,9 -17,5 0 0 N 8
21.01.2019 04:00:00 -15,0 -17,6 0 0 N 16
21.01.2019 03:00:00 -15,1 -17,5 0 0 N 6
21.01.2019 02:00:00 -15,4 -17,8 0 0 N 4,0
21.01.2019 01:00:00 -15,5 -18,0 0 0 N 16
21.01.2019 00:00:00 -15,4 -18,0 11 6 NW 16
20.01.2019 23:00:00 -15,7 -18,2 9 5 NW 16
20.01.2019 22:00:00 -16,0 -18,0 9 5 NW 3,2
20.01.2019 21:00:00 -16,0 -18,0 15 8 NW 1,6
20.01.2019 20:00:00 -16,0 -19,0 13 7 NNW 3,2
20.01.2019 19:00:00 -16,0 -18,0 15 8 NNW 2,0
20.01.2019 18:00:00 -16,0 -18,0 11 6 N 1,6
20.01.2019 17:00:00 -16,0 -19,0 21 11 N 2,0
20.01.2019 16:00:00 -16,0 -19,0 21 11 N 2,4
20.01.2019 15:00:00 -15,0 -19,0 26 14 N 1,6
20.01.2019 14:00:00 -16,0 -19,0 29 16 N 0,4
20.01.2019 13:00:00 -16,0 -19,0 35 19 NNE 1,6
20.01.2019 12:00:00 -16,0 -20,0 28 15 NNE 2,4
20.01.2019 11:00:00 -16,0 -19,0 31 17 N 3,2
20.01.2019 10:00:00 -16,0 -19,0 26 14 N 1,2
20.01.2019 09:00:00 -17,0 -20,0 34 18 N 1,6
20.01.2019 08:00:00 -16,0 -19,0 24 13 N 1,6
20.01.2019 07:00:00 -16,0 -19,0 22 12 N 2,8
20.01.2019 06:00:00 -16,6 -19,2 13 7 NNW 4,8
20.01.2019 05:00:00 -16,7 -19,3 21 11 NW 1,6
20.01.2019 04:00:00 -16,5 -19,5 24 13 NW 6
20.01.2019 03:00:00 -16,1 -19,0 26 14 NNW 3,2
20.01.2019 02:00:00 -15,9 -18,5 24 13 NNW 2,0
20.01.2019 01:00:00 -16,7 -19,3 18 10 NW 2,4
20.01.2019 00:00:00 -16,7 -20,0 18 10 NW 16
19.01.2019 23:00:00 -17,3 -20,0 13 7 NW 16
19.01.2019 22:00:00 -17,0 -19,0 15 8 NNW 16
19.01.2019 21:00:00 -16,0 -19,0 15 8 NW 16
19.01.2019 20:00:00 -15,0 -19,0 18 10 NNW 16
19.01.2019 19:00:00 -13,0 -16,0 18 10 NNW 16
19.01.2019 18:00:00 -13,0 -16,0 13 7 N 8
19.01.2019 17:00:00 -12,0 -15,0 0 0 N 0,4
19.01.2019 16:00:00 -12,0 -15,0 0 0 N 1,6
19.01.2019 15:00:00 -12,0 -15,0 5 3 NE 3,2
19.01.2019 14:00:00 -12,0 -15,0 5 3 E 4,8
19.01.2019 13:00:00 -13,0 -16,0 0 0 N 4,8
19.01.2019 12:00:00 -14,0 -17,0 0 0 N 4,8
19.01.2019 11:00:00 -15,0 -17,0 5 3 S 11
19.01.2019 10:00:00 -15,0 -18,0 5 3 SSW 4,0
19.01.2019 09:00:00 -15,0 -17,0 5 3 S 3,2
19.01.2019 08:00:00 -15,0 -17,0 0 0 N 6
19.01.2019 07:00:00 -15,0 -17,0 0 0 N 11
19.01.2019 06:00:00 -14,5 -16,6 0 0 N 6
19.01.2019 05:00:00 -14,6 -16,9 8 4 NNW 11
19.01.2019 04:00:00 -14,8 -17,1 5 3 NNW 6
19.01.2019 03:00:00 -15,0 -17,3 5 3 NW 8
19.01.2019 02:00:00 -15,1 -17,5 5 3 NW 8
19.01.2019 01:00:00 -15,3 -17,9 9 5 NW 8
19.01.2019 00:00:00 -15,5 -18,1 8 4 NW 8
18.01.2019 23:00:00 -15,7 -18,5 13 7 NNW 6
18.01.2019 22:00:00 -16,0 -19,0 16 9 NW 11
18.01.2019 21:00:00 -16,0 -19,0 16 9 NW 11
18.01.2019 20:00:00 -16,0 -20,0 13 7 NW 11
18.01.2019 19:00:00 -16,0 -20,0 15 8 NW 16
18.01.2019 18:00:00 -16,0 -21,0 16 9 NNW 16
18.01.2019 17:00:00 -16,0 -20,0 16 9 N 16
18.01.2019 16:00:00 -15,0 -20,0 16 9 N 16
18.01.2019 15:00:00 -14,0 -19,0 22 12 NNW 16
18.01.2019 14:00:00 -14,0 -19,0 22 12 N 16
18.01.2019 13:00:00 -13,0 -19,0 21 11 N 16
18.01.2019 12:00:00 -12,0 -18,0 24 13 NNW 16
18.01.2019 11:00:00 -13,0 -15,0 26 14 N 4,8
18.01.2019 10:00:00 -12,0 -14,0 26 14 N 3,2
18.01.2019 09:00:00 -15,0 -17,0 8 4 WNW 16
18.01.2019 08:00:00 -14,0 -16,0 0 0 N 16
18.01.2019 07:00:00 -14,0 -16,0 8 4 NW 16
18.01.2019 06:00:00 -16,6 -18,6 9 5 NW 16
18.01.2019 05:00:00 - - 5 3 W 16
18.01.2019 04:00:00 -12,8 -14,5 0 0 N 16
18.01.2019 03:00:00 - - 0 0 N 16
18.01.2019 02:00:00 - - 5 3 WSW 16
18.01.2019 01:00:00 -15,6 -17,7 5 3 W 16
18.01.2019 00:00:00 -12,3 -14,2 0 0 N 16
17.01.2019 23:00:00 -10,8 -12,4 9 5 NW 16
17.01.2019 22:00:00 -14,0 -16,0 8 4 W 16
17.01.2019 21:00:00 -13,0 -14,0 0 0 N 16
17.01.2019 20:00:00 -9,0 -11,0 5 3 W 16
17.01.2019 19:00:00 -9,0 -11,0 8 4 SW 16
17.01.2019 18:00:00 -8,0 -10,0 5 3 W 16
17.01.2019 17:00:00 -9,0 -10,0 8 4 WSW 8
17.01.2019 16:00:00 -9,0 -11,0 8 4 SSW 2,0
17.01.2019 15:00:00 -9,0 -11,0 9 5 SSW 2,0
17.01.2019 14:00:00 -10,0 -12,0 5 3 SW 8
17.01.2019 13:00:00 -11,0 -13,0 8 4 SW 2,8
17.01.2019 12:00:00 -13,0 -15,0 0 0 N 4,8
17.01.2019 11:00:00 -14,0 -16,0 0 0 N 16
17.01.2019 10:00:00 -15,0 -17,0 5 3 S 16
17.01.2019 09:00:00 -18,0 -20,0 0 0 N 16
17.01.2019 08:00:00 -19,0 -21,0 0 0 N 16
17.01.2019 07:00:00 -20,0 -23,0 0 0 N 16
17.01.2019 06:00:00 -20,0 -22,7 0 0 N 16
17.01.2019 05:00:00 -21,1 -23,6 0 0 N 16
17.01.2019 04:00:00 -20,0 -22,3 0 0 N 16
17.01.2019 03:00:00 -21,6 -24,4 0 0 N 16
17.01.2019 02:00:00 -22,0 -24,8 0 0 N 16
17.01.2019 01:00:00 -22,8 -25,3 5 3 NNW 16
17.01.2019 00:00:00 -22,0 -24,5 0 0 N 16
16.01.2019 23:00:00 -21,4 -24,0 0 0 N 16
16.01.2019 22:00:00 -20,0 -23,0 0 0 N 16
16.01.2019 21:00:00 -18,0 -20,0 0 0 N 16

tt = temperature
td = dewpoint
ff = wind speed
dd = wind direction
vv = visibility

Next stations